createdAt,value
2022-10-11T00:00:36.846Z,13.52
2022-10-11T00:03:39.236Z,8.27
2022-10-11T00:06:43.568Z,11.65
2022-10-11T00:09:46.635Z,10.38
2022-10-11T00:12:49.160Z,8.23
2022-10-11T00:15:51.698Z,7.65
2022-10-11T00:18:53.822Z,11.40
2022-10-11T00:21:56.222Z,9.48
2022-10-11T00:24:59.150Z,9.85
2022-10-11T00:28:01.591Z,10.90
2022-10-11T00:31:10.857Z,12.35
2022-10-11T00:34:13.468Z,11.73
2022-10-11T00:37:15.593Z,16.77
2022-10-11T00:40:20.261Z,10.82
2022-10-11T00:43:27.728Z,13.50
2022-10-11T00:46:32.075Z,13.23
2022-10-11T00:49:37.236Z,7.35
2022-10-11T00:52:46.029Z,8.60
2022-10-11T00:55:54.898Z,9.55
2022-10-11T00:59:00.139Z,8.95
2022-10-11T01:02:03.067Z,15.98
2022-10-11T01:05:28.123Z,8.38
2022-10-11T01:08:31.673Z,7.50
2022-10-11T01:11:37.660Z,12.85
2022-10-11T01:15:13.814Z,8.38
2022-10-11T01:18:31.403Z,7.95
2022-10-11T01:21:36.131Z,11.20
2022-10-11T01:24:57.166Z,9.10
2022-10-11T01:28:26.831Z,7.03
2022-10-11T01:31:40.566Z,11.32
2022-10-11T01:34:55.984Z,10.75
2022-10-11T01:38:17.979Z,8.55
2022-10-11T01:41:25.716Z,11.30
2022-10-11T01:44:28.874Z,10.07
2022-10-11T01:47:33.699Z,13.10
2022-10-11T01:50:40.676Z,8.95
2022-10-11T01:53:55.433Z,8.95
2022-10-11T01:57:09.958Z,11.68
2022-10-11T02:00:14.089Z,8.55
2022-10-11T02:03:52.393Z,8.93
2022-10-11T02:06:59.359Z,10.30
2022-10-11T02:10:20.214Z,9.52
2022-10-11T02:13:24.915Z,16.08
2022-10-11T02:16:36.899Z,9.85
2022-10-11T02:19:42.891Z,11.10
2022-10-11T02:22:49.501Z,8.45
2022-10-11T02:25:53.544Z,15.45
2022-10-11T02:29:01.235Z,8.05
2022-10-11T02:32:04.211Z,10.93
2022-10-11T02:35:07.200Z,12.18
2022-10-11T02:38:15.830Z,7.80
2022-10-11T02:41:36.464Z,12.45
2022-10-11T02:44:44.132Z,10.75
2022-10-11T02:47:47.382Z,11.53
2022-10-11T02:50:49.774Z,9.68
2022-10-11T02:53:52.257Z,12.18
2022-10-11T02:56:54.330Z,12.52
2022-10-11T02:59:56.864Z,12.50
2022-10-11T03:02:59.005Z,10.18
2022-10-11T03:06:02.942Z,8.80
2022-10-11T03:09:05.242Z,11.40
2022-10-11T03:12:09.726Z,10.63
2022-10-11T03:15:11.820Z,13.73
2022-10-11T03:18:14.152Z,12.37
2022-10-11T03:21:16.324Z,9.40
2022-10-11T03:24:18.685Z,59.60
2022-10-11T03:27:20.805Z,9.90
2022-10-11T03:30:23.215Z,13.27
2022-10-11T03:33:25.337Z,17.67
2022-10-11T03:36:27.783Z,15.35
2022-10-11T03:39:29.879Z,11.85
2022-10-11T03:42:32.212Z,9.63
2022-10-11T03:45:34.608Z,10.07
2022-10-11T03:48:37.005Z,10.63
2022-10-11T03:51:39.089Z,11.18
2022-10-11T03:54:41.679Z,12.90
2022-10-11T03:57:43.785Z,13.45
2022-10-11T04:00:46.233Z,11.95
2022-10-11T04:03:48.621Z,17.12
2022-10-11T04:06:50.751Z,17.37
2022-10-11T04:09:53.126Z,12.80
2022-10-11T04:12:55.179Z,9.77
2022-10-11T04:15:57.516Z,12.43
2022-10-11T04:18:59.612Z,14.27
2022-10-11T04:22:01.942Z,12.07
2022-10-11T04:25:05.114Z,11.65
2022-10-11T04:28:08.787Z,29.48
2022-10-11T04:31:10.997Z,21.85
2022-10-11T04:34:13.676Z,11.18
2022-10-11T04:37:15.763Z,13.27
2022-10-11T04:40:18.216Z,9.30
2022-10-11T04:43:20.398Z,20.08
2022-10-11T04:46:23.575Z,12.52
2022-10-11T04:49:27.385Z,14.85
2022-10-11T04:52:29.768Z,18.85
2022-10-11T04:55:32.111Z,11.48
2022-10-11T04:58:40.404Z,31.95
2022-10-11T05:01:42.534Z,18.50
2022-10-11T05:04:44.991Z,24.50
2022-10-11T05:07:47.152Z,11.10
2022-10-11T05:11:00.643Z,15.85
2022-10-11T05:14:02.983Z,14.50
2022-10-11T05:17:05.611Z,12.75
2022-10-11T05:20:08.237Z,23.33
2022-10-11T05:23:10.948Z,13.35
2022-10-11T05:26:13.752Z,20.80
2022-10-11T05:29:16.246Z,14.15
2022-10-11T05:32:20.576Z,10.10
2022-10-11T05:35:22.956Z,13.07
2022-10-11T05:38:25.065Z,18.12
2022-10-11T05:41:29.136Z,12.82
2022-10-11T05:44:31.206Z,10.02
2022-10-11T05:47:33.946Z,17.65
2022-10-11T05:50:37.235Z,17.62
2022-10-11T05:53:40.030Z,24.48
2022-10-11T05:56:42.150Z,11.95
2022-10-11T05:59:44.594Z,16.30
2022-10-11T06:02:50.547Z,13.38
2022-10-11T06:05:56.656Z,27.48
2022-10-11T06:08:59.167Z,11.07
2022-10-11T06:12:04.454Z,12.50
2022-10-11T06:15:08.371Z,13.45
2022-10-11T06:18:10.923Z,12.13
2022-10-11T06:21:13.308Z,11.57
2022-10-11T06:24:16.321Z,13.73
2022-10-11T06:27:18.434Z,8.57
2022-10-11T06:30:20.776Z,11.98
2022-10-11T06:33:23.702Z,14.70
2022-10-11T06:36:26.989Z,12.98
2022-10-11T06:39:29.094Z,11.73
2022-10-11T06:42:31.593Z,14.13
2022-10-11T06:45:33.686Z,12.10
2022-10-11T06:48:39.996Z,9.93
2022-10-11T06:51:42.182Z,8.20
2022-10-11T06:54:45.718Z,9.27
2022-10-11T06:57:47.902Z,12.18
2022-10-11T07:00:50.403Z,13.88
2022-10-11T07:03:54.906Z,19.23
2022-10-11T07:06:57.363Z,9.57
2022-10-11T07:09:59.528Z,12.10
2022-10-11T07:13:01.872Z,9.13
2022-10-11T07:16:06.472Z,7.85
2022-10-11T07:19:10.115Z,13.88
2022-10-11T07:22:12.306Z,11.25
2022-10-11T07:25:14.699Z,15.70
2022-10-11T07:28:16.894Z,17.62
2022-10-11T07:31:25.005Z,14.80
2022-10-11T07:34:27.118Z,11.45
2022-10-11T07:37:29.659Z,10.80
2022-10-11T07:40:34.865Z,8.85
2022-10-11T07:43:39.461Z,13.18
2022-10-11T07:46:41.768Z,14.30
2022-10-11T07:49:44.353Z,14.52
2022-10-11T07:52:48.082Z,18.60
2022-10-11T07:55:51.667Z,12.00
2022-10-11T07:58:57.433Z,14.95
2022-10-11T08:02:00.568Z,8.95
2022-10-11T08:05:09.044Z,13.20
2022-10-11T08:08:13.970Z,12.00
2022-10-11T08:11:35.031Z,15.10
2022-10-11T08:14:38.292Z,13.75
2022-10-11T08:17:45.948Z,13.20
2022-10-11T08:20:55.085Z,16.42
2022-10-11T08:24:02.305Z,10.80
2022-10-11T08:27:19.762Z,14.23
2022-10-11T08:30:38.945Z,14.93
2022-10-11T08:33:43.222Z,19.55
2022-10-11T09:51:17.411Z,24.50
2022-10-11T09:54:36.341Z,20.73
2022-10-11T09:57:40.600Z,16.08
2022-10-11T10:00:57.679Z,19.73
2022-10-11T10:04:12.962Z,26.83
2022-10-11T10:07:15.696Z,24.35
2022-10-11T10:10:34.095Z,21.67
2022-10-11T10:13:47.837Z,18.03
2022-10-11T10:17:14.536Z,22.70
2022-10-11T10:20:23.384Z,30.02
2022-10-11T10:23:31.748Z,26.50
2022-10-11T10:26:34.742Z,20.80
2022-10-11T10:29:37.815Z,22.77
2022-10-11T10:33:02.002Z,27.25
2022-10-11T10:36:18.767Z,22.90
2022-10-11T10:39:42.360Z,24.40
2022-10-11T10:42:44.947Z,24.48
2022-10-11T10:46:04.979Z,29.67
2022-10-11T10:49:48.919Z,16.33
2022-10-11T10:53:00.845Z,24.37
2022-10-11T10:56:18.265Z,21.30
2022-10-11T10:59:38.768Z,20.55
2022-10-11T11:02:58.851Z,15.43
2022-10-11T11:06:07.422Z,14.60
2022-10-11T11:09:22.219Z,22.90
2022-10-11T11:12:42.731Z,22.40
2022-10-11T11:16:19.102Z,20.35
2022-10-11T11:19:35.516Z,25.23
2022-10-11T11:22:54.882Z,18.70
2022-10-11T11:26:12.174Z,21.83
2022-10-11T11:29:30.008Z,33.37
2022-10-11T11:32:57.393Z,24.17
2022-10-11T11:36:05.818Z,18.85
2022-10-11T11:39:32.927Z,15.32
2022-10-11T11:43:01.334Z,20.05
2022-10-11T11:46:12.656Z,19.87
2022-10-11T11:49:24.893Z,21.20
2022-10-11T11:52:33.784Z,21.48
2022-10-11T11:55:49.330Z,24.92
2022-10-11T11:59:03.187Z,21.70
2022-10-11T12:02:43.259Z,24.00
2022-10-11T12:06:14.060Z,30.40
2022-10-11T12:09:23.098Z,23.08
2022-10-11T12:12:29.538Z,23.65
2022-10-11T12:15:32.805Z,20.33
2022-10-11T12:19:03.083Z,16.65
2022-10-11T12:22:26.781Z,16.53
2022-10-11T12:25:38.023Z,19.45
2022-10-11T12:28:43.687Z,19.90
2022-10-11T12:32:01.606Z,19.30
2022-10-11T12:35:54.790Z,22.23
2022-10-11T12:39:19.187Z,27.35
2022-10-11T12:42:26.040Z,23.83
2022-10-11T12:45:33.973Z,19.10
2022-10-11T12:48:48.927Z,17.85
2022-10-11T12:51:53.976Z,15.25
2022-10-11T12:55:26.137Z,18.40
2022-10-11T12:58:29.996Z,21.90
2022-10-11T13:01:47.485Z,20.83
2022-10-11T13:04:49.968Z,29.42
2022-10-11T13:07:55.495Z,15.98
2022-10-11T13:11:03.405Z,25.95
2022-10-11T13:14:15.689Z,19.33
2022-10-11T13:17:37.281Z,24.23
2022-10-11T13:20:50.485Z,21.60
2022-10-11T13:24:18.225Z,20.00
2022-10-11T13:27:24.228Z,24.40
2022-10-11T13:30:30.576Z,17.10
2022-10-11T13:33:38.222Z,19.95
2022-10-11T13:36:41.348Z,21.52
2022-10-11T13:39:45.626Z,22.92
2022-10-11T13:42:50.272Z,19.33
2022-10-11T13:45:54.476Z,21.52
2022-10-11T13:49:06.642Z,19.25
2022-10-11T13:52:24.300Z,18.10
2022-10-11T13:55:34.086Z,24.17
2022-10-11T13:58:46.404Z,22.15
2022-10-11T14:01:54.820Z,29.67
2022-10-11T14:08:18.989Z,25.27
2022-10-11T14:11:39.824Z,20.95
2022-10-11T14:14:42.800Z,21.48
2022-10-11T14:17:45.964Z,22.62
2022-10-11T14:20:48.232Z,27.17
2022-10-11T14:24:01.153Z,22.23
2022-10-11T14:27:05.431Z,22.42
2022-10-11T14:30:25.598Z,23.30
2022-10-11T14:33:29.179Z,19.95
2022-10-11T14:36:31.608Z,19.02
2022-10-11T14:39:33.873Z,16.42
2022-10-11T14:42:36.362Z,19.42
2022-10-11T14:45:38.678Z,18.58
2022-10-11T14:48:54.827Z,18.23
2022-10-11T14:51:58.805Z,17.12
2022-10-11T14:55:01.878Z,18.30
2022-10-11T14:58:04.862Z,18.42
2022-10-11T15:01:11.731Z,21.35
2022-10-11T15:04:16.232Z,18.48
2022-10-11T15:07:18.817Z,21.02
2022-10-11T15:10:33.522Z,24.20
2022-10-11T15:13:35.883Z,22.10
2022-10-11T15:16:39.995Z,17.60
2022-10-11T15:19:42.357Z,16.73
2022-10-11T15:22:44.446Z,14.68
2022-10-11T15:25:46.996Z,23.23
2022-10-11T15:28:50.309Z,19.27
2022-10-11T15:31:52.822Z,15.88
2022-10-11T15:34:54.940Z,17.80
2022-10-11T15:37:59.646Z,17.30
2022-10-11T15:41:01.989Z,15.80
2022-10-11T15:44:04.451Z,18.95
2022-10-11T15:47:06.561Z,28.08
2022-10-11T15:50:14.616Z,19.25
2022-10-11T15:53:19.486Z,26.12
2022-10-11T15:56:21.903Z,18.77
2022-10-11T15:59:24.186Z,41.25
2022-10-11T16:02:26.665Z,22.67
2022-10-11T16:05:29.202Z,22.73
2022-10-11T16:08:31.335Z,18.50
2022-10-11T16:11:33.914Z,17.70
2022-10-11T16:14:36.050Z,31.90
2022-10-11T16:17:38.864Z,27.80
2022-10-11T16:20:44.011Z,19.55
2022-10-11T16:23:46.403Z,21.37
2022-10-11T16:26:48.645Z,21.17
2022-10-11T16:29:51.220Z,21.67
2022-10-11T16:32:53.341Z,21.08
2022-10-11T16:36:16.412Z,20.67
2022-10-11T16:39:19.795Z,22.23
2022-10-11T16:42:22.222Z,22.10
2022-10-11T16:45:24.564Z,23.65
2022-10-11T16:48:27.018Z,23.87
2022-10-11T16:51:31.588Z,29.40
2022-10-11T16:54:34.027Z,26.35
2022-10-11T16:57:37.801Z,28.62
2022-10-11T17:00:42.340Z,25.02
2022-10-11T17:03:44.707Z,23.02
2022-10-11T17:06:48.445Z,33.58
2022-10-11T17:09:50.779Z,23.75
2022-10-11T17:12:55.239Z,24.73
2022-10-11T17:15:57.941Z,23.40
2022-10-11T17:19:00.712Z,27.00
2022-10-11T17:22:03.183Z,22.40
2022-10-11T17:25:09.056Z,22.13
2022-10-11T17:28:11.605Z,25.48
2022-10-11T17:31:14.123Z,33.70
2022-10-11T17:34:17.124Z,35.42
2022-10-11T17:37:19.735Z,22.65
2022-10-11T17:40:21.963Z,21.35
2022-10-11T17:43:24.378Z,27.13
2022-10-11T17:46:28.086Z,32.20
2022-10-11T17:49:30.608Z,32.70
2022-10-11T17:52:32.736Z,38.85
2022-10-11T17:55:41.470Z,32.50
2022-10-11T17:58:43.813Z,27.50
2022-10-11T18:01:46.662Z,44.20
2022-10-11T18:04:49.213Z,36.60
2022-10-11T18:07:54.788Z,35.85
2022-10-11T18:10:57.210Z,31.42
2022-10-11T18:13:59.390Z,38.78
2022-10-11T18:17:01.979Z,33.05
2022-10-11T18:20:05.331Z,48.35
2022-10-11T18:23:07.710Z,29.73
2022-10-11T18:26:18.557Z,39.17
2022-10-11T18:29:21.023Z,36.85
2022-10-11T18:32:23.291Z,36.85
2022-10-11T18:35:25.719Z,32.00
2022-10-11T18:38:27.918Z,38.90
2022-10-11T18:41:32.191Z,33.72
2022-10-11T18:44:34.414Z,39.05
2022-10-11T18:47:36.825Z,41.72
2022-10-11T18:50:38.968Z,35.50
2022-10-11T18:53:42.438Z,39.78
2022-10-11T18:56:44.782Z,42.10
2022-10-11T18:59:47.249Z,34.30
2022-10-11T19:02:49.327Z,37.58
2022-10-11T19:05:51.708Z,44.65
2022-10-11T19:08:56.527Z,30.10
2022-10-11T19:11:59.061Z,35.00
2022-10-11T19:15:01.810Z,43.15
2022-10-11T19:18:04.371Z,35.75
2022-10-11T19:21:09.285Z,37.53
2022-10-11T19:24:12.008Z,34.90
2022-10-11T19:27:14.104Z,42.08
2022-10-11T19:30:16.663Z,35.83
2022-10-11T19:33:18.792Z,43.20
2022-10-11T19:36:21.188Z,37.20
2022-10-11T19:39:24.616Z,41.50
2022-10-11T19:42:27.082Z,36.78
2022-10-11T19:45:29.192Z,35.95
2022-10-11T19:48:32.334Z,43.45
2022-10-11T19:51:38.200Z,32.67
2022-10-11T19:54:40.606Z,41.37
2022-10-11T19:57:42.714Z,31.67
2022-10-11T20:00:45.237Z,32.70
2022-10-11T20:03:50.708Z,37.45
2022-10-11T20:06:56.020Z,37.47
2022-10-11T20:09:58.509Z,37.28
2022-10-11T20:13:00.660Z,36.05
2022-10-11T20:16:09.205Z,35.47
2022-10-11T20:19:11.377Z,32.83
2022-10-11T20:22:13.807Z,33.25
2022-10-11T20:25:16.148Z,49.05
2022-10-11T20:28:18.928Z,34.30
2022-10-11T20:31:29.707Z,40.03
2022-10-11T20:34:32.106Z,35.72
2022-10-11T20:37:36.549Z,38.60
2022-10-11T20:40:45.235Z,39.90
2022-10-11T20:43:49.146Z,42.15
2022-10-11T20:46:51.542Z,36.67
2022-10-11T20:49:53.811Z,39.22
2022-10-11T20:52:56.243Z,35.13
2022-10-11T20:55:58.371Z,31.15
2022-10-11T20:59:01.392Z,34.75
2022-10-11T21:02:03.846Z,37.15
2022-10-11T21:05:06.809Z,44.63
2022-10-11T21:08:09.669Z,33.35
2022-10-11T21:11:12.340Z,36.45
2022-10-11T21:14:14.575Z,29.48
2022-10-11T21:17:17.493Z,31.33
2022-10-11T21:20:19.820Z,33.08
2022-10-11T21:23:22.206Z,36.72
2022-10-11T21:26:24.786Z,29.10
2022-10-11T21:29:27.231Z,33.00
2022-10-11T21:32:29.347Z,33.42
2022-10-11T21:35:31.832Z,35.97
2022-10-11T21:38:34.664Z,32.28
2022-10-11T21:41:37.048Z,30.15
2022-10-11T21:44:42.872Z,32.28
2022-10-11T21:47:46.348Z,28.33
2022-10-11T21:50:54.005Z,40.28
2022-10-11T21:53:57.518Z,29.55
2022-10-11T21:56:59.726Z,30.40
2022-10-11T22:00:02.396Z,35.08
2022-10-11T22:03:04.544Z,28.92
2022-10-11T22:06:07.136Z,31.80
2022-10-11T22:09:09.977Z,27.25
2022-10-11T22:12:12.368Z,32.92
2022-10-11T22:15:14.539Z,25.73
2022-10-11T22:18:17.119Z,25.50
2022-10-11T22:21:22.238Z,25.30
2022-10-11T22:24:25.659Z,28.52
2022-10-11T22:27:27.792Z,23.27
2022-10-11T22:30:30.250Z,25.65
2022-10-11T22:33:32.737Z,23.85
2022-10-11T22:36:35.269Z,24.80
2022-10-11T22:39:37.428Z,24.35
2022-10-11T22:42:39.926Z,27.30
2022-10-11T22:45:42.173Z,23.20
2022-10-11T22:48:44.658Z,22.20
2022-10-11T22:51:48.237Z,16.90
2022-10-11T22:54:50.702Z,28.70
2022-10-11T22:57:53.302Z,23.12
2022-10-11T23:00:55.741Z,22.42
2022-10-11T23:03:57.994Z,21.60
2022-10-11T23:07:04.763Z,19.58
2022-10-11T23:10:07.766Z,20.65
2022-10-11T23:13:10.184Z,21.37
2022-10-11T23:16:13.309Z,21.17
2022-10-11T23:19:15.835Z,18.50
2022-10-11T23:22:18.276Z,17.58
2022-10-11T23:25:22.303Z,18.12
2022-10-11T23:28:24.455Z,21.15
2022-10-11T23:31:26.911Z,20.30
2022-10-11T23:34:29.085Z,22.42
2022-10-11T23:37:31.568Z,18.10
2022-10-11T23:40:33.749Z,17.95
2022-10-11T23:43:36.337Z,19.80
2022-10-11T23:46:39.717Z,22.90
2022-10-11T23:49:42.146Z,21.23
2022-10-11T23:52:44.302Z,20.30
2022-10-11T23:55:46.825Z,23.85
2022-10-11T23:58:48.990Z,19.33
